Time;durP1;ratioP1;P1;durP2;ratioP2;P2;SDS_P1;SDS_P2;PMS_P1;PMS_P2;Temp;Humidity;BMP_temperature;BMP_pressure;BME280_temperature;BME280_humidity;BME280_pressure;Samples;Min_cycle;Max_cycle;Signal;HPM_P1;HPM_P2
2022/06/09 00:01:11;;;;;;;13.43;12.00;;;;;;;;;;5003911;28;20461;-83
2022/06/09 00:03:40;;;;;;;16.03;11.63;;;;;;;;;;5003174;28;20482;-83
2022/06/09 00:06:09;;;;;;;14.70;11.00;;;;;;;;;;5006373;28;20478;-84
2022/06/09 00:08:36;;;;;;;14.83;13.10;;;;;;;;;;5003720;28;21005;-84
2022/06/09 00:11:06;;;;;;;16.50;13.40;;;;;;;;;;5005751;28;20464;-83
2022/06/09 00:13:34;;;;;;;15.33;12.67;;;;;;;;;;5005085;28;20925;-84
2022/06/09 00:16:00;;;;;;;15.53;12.73;;;;;;;;;;5004966;28;20444;-83
2022/06/09 00:18:27;;;;;;;16.30;14.60;;;;;;;;;;5003165;28;20459;-84
2022/06/09 00:20:53;;;;;;;16.17;14.47;;;;;;;;;;5005109;28;20440;-83
2022/06/09 00:23:21;;;;;;;17.60;14.90;;;;;;;;;;5003893;28;20478;-83
2022/06/09 00:25:47;;;;;;;21.70;14.77;;;;;;;;;;5003844;28;20510;-84
2022/06/09 00:28:13;;;;;;;18.37;15.30;;;;;;;;;;5004315;28;20989;-84
2022/06/09 00:30:40;;;;;;;20.60;13.70;;;;;;;;;;5005358;28;20472;-84
2022/06/09 00:33:06;;;;;;;16.93;15.20;;;;;;;;;;5004471;28;20864;-84
2022/06/09 00:35:32;;;;;;;19.20;15.50;;;;;;;;;;5005895;28;20536;-84
2022/06/09 00:37:59;;;;;;;18.00;14.30;;;;;;;;;;5003842;28;20481;-84
2022/06/09 00:40:26;;;;;;;19.60;14.03;;;;;;;;;;5003034;28;20494;-84
2022/06/09 00:42:53;;;;;;;16.33;13.37;;;;;;;;;;5004513;28;20993;-82
2022/06/09 00:45:26;;;;;;;15.57;13.03;;;;;;;;;;5006354;28;20939;-84
2022/06/09 00:47:56;;;;;;;18.83;12.63;;;;;;;;;;5005137;28;20452;-83
2022/06/09 00:50:24;;;;;;;17.93;13.90;;;;;;;;;;5004855;28;21003;-85
2022/06/09 00:52:52;;;;;;;15.03;13.00;;;;;;;;;;5004302;28;20876;-84
2022/06/09 00:55:21;;;;;;;15.93;12.93;;;;;;;;;;5005923;28;20439;-84
2022/06/09 00:57:51;;;;;;;20.83;13.50;;;;;;;;;;5004018;28;20452;-84
2022/06/09 01:00:18;;;;;;;20.17;14.30;;;;;;;;;;5002989;28;20456;-84
2022/06/09 01:02:45;;;;;;;15.30;12.03;;;;;;;;;;5008020;28;20455;-85
2022/06/09 01:05:12;;;;;;;23.50;14.70;;;;;;;;;;5010729;28;20850;-84
2022/06/09 01:07:42;;;;;;;23.47;14.27;;;;;;;;;;5009524;28;20497;-84
2022/06/09 01:10:08;;;;;;;27.97;14.60;;;;;;;;;;5009322;28;20478;-84
2022/06/09 01:12:35;;;;;;;26.53;16.10;;;;;;;;;;5009576;28;20468;-85
2022/06/09 01:15:06;;;;;;;32.33;17.97;;;;;;;;;;5008765;28;20499;-84
2022/06/09 01:17:39;;;;;;;24.03;15.57;;;;;;;;;;5007656;28;20448;-84
2022/06/09 01:20:09;;;;;;;26.17;15.27;;;;;;;;;;5010486;28;20516;-84
2022/06/09 01:22:56;;;;;;;28.97;16.20;;;;;;;;;;5008789;28;20470;-84
2022/06/09 01:25:44;;;;;;;27.67;16.17;;;;;;;;;;5004454;28;20443;-85
2022/06/09 01:28:32;;;;;;;24.80;16.90;;;;;;;;;;5006659;28;20444;-84
2022/06/09 01:31:01;;;;;;;26.80;18.60;;;;;;;;;;5008972;28;20496;-84
2022/06/09 01:33:31;;;;;;;29.37;19.60;;;;;;;;;;5008064;28;20482;-85
2022/06/09 01:36:05;;;;;;;30.53;19.20;;;;;;;;;;5010861;28;20461;-84
2022/06/09 01:38:31;;;;;;;35.50;21.80;;;;;;;;;;5008669;28;20453;-84
2022/06/09 01:40:57;;;;;;;30.60;19.73;;;;;;;;;;5010772;28;20463;-84
2022/06/09 01:43:23;;;;;;;33.90;19.70;;;;;;;;;;5009024;28;20460;-84
2022/06/09 01:45:53;;;;;;;32.07;21.10;;;;;;;;;;5007524;28;20493;-84
2022/06/09 01:48:24;;;;;;;34.97;21.17;;;;;;;;;;5008448;28;20841;-84
2022/06/09 01:50:52;;;;;;;34.93;21.03;;;;;;;;;;5008579;28;20471;-84
2022/06/09 01:53:21;;;;;;;37.37;21.53;;;;;;;;;;5007826;28;20489;-84
2022/06/09 01:55:49;;;;;;;31.80;20.90;;;;;;;;;;5009509;28;20496;-84
2022/06/09 01:58:18;;;;;;;44.90;23.13;;;;;;;;;;5006864;28;21064;-84
2022/06/09 02:00:45;;;;;;;39.73;20.57;;;;;;;;;;5007240;28;20438;-84
2022/06/09 02:03:14;;;;;;;30.97;21.17;;;;;;;;;;5007945;28;20464;-84
2022/06/09 02:05:43;;;;;;;30.83;19.67;;;;;;;;;;5007940;28;21031;-85
2022/06/09 02:08:12;;;;;;;32.03;20.97;;;;;;;;;;5009584;28;20478;-84
2022/06/09 02:10:39;;;;;;;35.63;21.10;;;;;;;;;;5008766;28;20456;-84
2022/06/09 02:13:07;;;;;;;30.50;21.00;;;;;;;;;;5006087;28;20474;-84
2022/06/09 02:15:36;;;;;;;33.30;20.13;;;;;;;;;;5007535;28;20842;-84
2022/06/09 02:18:05;;;;;;;28.20;20.50;;;;;;;;;;5008656;28;20492;-83
2022/06/09 02:20:32;;;;;;;27.87;19.57;;;;;;;;;;5008631;28;20477;-84
2022/06/09 02:22:59;;;;;;;35.63;20.13;;;;;;;;;;5009081;28;20481;-84
2022/06/09 02:25:26;;;;;;;29.07;21.03;;;;;;;;;;5006832;28;20992;-84
2022/06/09 02:27:52;;;;;;;34.07;20.13;;;;;;;;;;5007982;28;21079;-82
2022/06/09 02:30:18;;;;;;;27.27;21.10;;;;;;;;;;5007299;28;20481;-84
2022/06/09 02:32:45;;;;;;;36.70;22.47;;;;;;;;;;5005745;28;20452;-84
2022/06/09 02:35:11;;;;;;;31.17;20.80;;;;;;;;;;5007804;28;21148;-84
2022/06/09 02:37:37;;;;;;;42.93;23.70;;;;;;;;;;5005579;28;20457;-84
2022/06/09 02:40:06;;;;;;;32.70;22.10;;;;;;;;;;5007309;28;20477;-85
2022/06/09 02:42:32;;;;;;;38.93;24.43;;;;;;;;;;5005963;28;20475;-84
2022/06/09 02:44:58;;;;;;;33.30;22.53;;;;;;;;;;5008868;28;20447;-85
2022/06/09 02:47:25;;;;;;;36.90;23.80;;;;;;;;;;5010045;28;20514;-84
2022/06/09 02:49:51;;;;;;;35.57;23.30;;;;;;;;;;5007277;28;20601;-84
2022/06/09 02:52:17;;;;;;;37.10;24.80;;;;;;;;;;5006363;28;20452;-84
2022/06/09 02:54:43;;;;;;;37.10;24.97;;;;;;;;;;5006455;28;20945;-84
2022/06/09 02:57:11;;;;;;;37.27;23.87;;;;;;;;;;5008065;28;20453;-84
2022/06/09 02:59:37;;;;;;;44.67;26.47;;;;;;;;;;5007087;28;21011;-84
2022/06/09 03:02:04;;;;;;;46.83;25.97;;;;;;;;;;5008008;28;20506;-84
2022/06/09 03:04:30;;;;;;;42.63;25.57;;;;;;;;;;5008060;28;20560;-85
2022/06/09 03:06:56;;;;;;;44.80;26.50;;;;;;;;;;5007055;28;20466;-85
2022/06/09 03:09:23;;;;;;;42.00;27.60;;;;;;;;;;5008856;28;20464;-84
2022/06/09 03:11:49;;;;;;;45.03;28.07;;;;;;;;;;5007005;28;20485;-83
2022/06/09 03:14:17;;;;;;;54.40;29.17;;;;;;;;;;5001635;28;22144;-86
2022/06/09 03:16:43;;;;;;;40.70;24.10;;;;;;;;;;5003930;28;20522;-84
2022/06/09 03:19:10;;;;;;;40.57;24.57;;;;;;;;;;5005274;28;20903;-84
2022/06/09 03:21:36;;;;;;;39.37;23.40;;;;;;;;;;5004502;28;20993;-83
2022/06/09 03:24:02;;;;;;;50.23;25.53;;;;;;;;;;5004495;28;20734;-84
2022/06/09 03:26:29;;;;;;;43.07;24.83;;;;;;;;;;5003699;28;20451;-84
2022/06/09 03:28:55;;;;;;;44.80;25.63;;;;;;;;;;5004680;28;20482;-84
2022/06/09 03:31:22;;;;;;;42.17;24.57;;;;;;;;;;5005919;28;20432;-84
2022/06/09 03:33:50;;;;;;;37.40;25.30;;;;;;;;;;5004705;28;20469;-85
2022/06/09 03:36:16;;;;;;;33.90;24.03;;;;;;;;;;5004767;28;20537;-83
2022/06/09 03:38:42;;;;;;;43.40;23.87;;;;;;;;;;5004949;28;20469;-83
2022/06/09 03:41:09;;;;;;;43.20;26.23;;;;;;;;;;5005656;28;20484;-84
2022/06/09 03:43:35;;;;;;;37.63;24.70;;;;;;;;;;5004284;28;20457;-83
2022/06/09 03:46:01;;;;;;;30.83;21.90;;;;;;;;;;5003938;28;20455;-84
2022/06/09 03:48:29;;;;;;;42.60;22.80;;;;;;;;;;5003026;28;20507;-84
2022/06/09 03:50:56;;;;;;;39.00;25.07;;;;;;;;;;5038071;22;20484;-84
2022/06/09 03:53:22;;;;;;;35.20;22.73;;;;;;;;;;5006982;28;20448;-90
2022/06/09 03:55:49;;;;;;;51.60;27.27;;;;;;;;;;5005094;28;20806;-86
2022/06/09 03:58:15;;;;;;;41.40;24.43;;;;;;;;;;5006021;28;20515;-83
2022/06/09 04:00:41;;;;;;;37.00;24.27;;;;;;;;;;5009260;28;20463;-84
2022/06/09 04:03:07;;;;;;;49.23;25.60;;;;;;;;;;5003897;28;20462;-84
2022/06/09 04:05:35;;;;;;;33.17;24.27;;;;;;;;;;5002581;28;20417;-85
2022/06/09 04:08:02;;;;;;;37.17;23.80;;;;;;;;;;5007387;28;20482;-85
2022/06/09 04:10:30;;;;;;;44.33;25.47;;;;;;;;;;5010235;28;20962;-84
2022/06/09 04:12:56;;;;;;;40.30;23.27;;;;;;;;;;5003594;28;20475;-84
2022/06/09 04:15:22;;;;;;;36.90;24.90;;;;;;;;;;5012605;28;20489;-85
2022/06/09 04:17:51;;;;;;;41.20;24.27;;;;;;;;;;5009754;28;20873;-84
2022/06/09 04:20:19;;;;;;;45.30;24.07;;;;;;;;;;5012085;28;20431;-83
2022/06/09 04:22:47;;;;;;;34.37;23.63;;;;;;;;;;5007249;28;20482;-83
2022/06/09 04:25:13;;;;;;;48.17;24.70;;;;;;;;;;5005102;28;20470;-83
2022/06/09 04:27:40;;;;;;;36.33;23.93;;;;;;;;;;5009548;28;20470;-85
2022/06/09 04:30:07;;;;;;;37.30;24.43;;;;;;;;;;5006714;28;20459;-85
2022/06/09 04:32:33;;;;;;;43.23;24.57;;;;;;;;;;5006840;28;20455;-85
2022/06/09 04:34:59;;;;;;;41.93;24.30;;;;;;;;;;5005397;28;20835;-86
2022/06/09 04:37:59;;;;;;;40.60;24.77;;;;;;;;;;5006409;28;20473;-85
2022/06/09 04:40:14;;;;;;;35.63;23.97;;;;;;;;;;5012915;28;20919;-83
2022/06/09 04:42:40;;;;;;;39.17;24.40;;;;;;;;;;5011424;28;20489;-83
2022/06/09 04:45:06;;;;;;;40.10;22.77;;;;;;;;;;5011429;28;20420;-84
2022/06/09 04:47:33;;;;;;;39.00;20.97;;;;;;;;;;5012578;28;20511;-86
2022/06/09 04:49:59;;;;;;;32.50;21.93;;;;;;;;;;5006629;28;20465;-85
2022/06/09 04:52:25;;;;;;;41.47;24.07;;;;;;;;;;5017626;28;20470;-85
2022/06/09 04:54:52;;;;;;;42.40;23.87;;;;;;;;;;5014595;28;20454;-87
2022/06/09 04:57:20;;;;;;;42.73;23.27;;;;;;;;;;5015579;28;20473;-85
2022/06/09 04:59:46;;;;;;;31.43;20.87;;;;;;;;;;5012729;28;20479;-85
2022/06/09 05:02:12;;;;;;;36.40;20.90;;;;;;;;;;5013964;28;20485;-86
2022/06/09 05:04:39;;;;;;;34.20;20.13;;;;;;;;;;5009103;28;20507;-86
2022/06/09 05:07:06;;;;;;;31.70;19.60;;;;;;;;;;5013502;28;20467;-86
2022/06/09 05:09:32;;;;;;;29.10;17.83;;;;;;;;;;5014315;28;20436;-85
2022/06/09 05:11:59;;;;;;;27.90;16.47;;;;;;;;;;5013760;28;20476;-86
2022/06/09 05:14:26;;;;;;;29.20;15.83;;;;;;;;;;5005772;28;20449;-84
2022/06/09 05:16:53;;;;;;;30.07;15.87;;;;;;;;;;5007641;28;20474;-84
2022/06/09 05:19:19;;;;;;;26.17;16.67;;;;;;;;;;5014259;28;20490;-84
2022/06/09 05:21:45;;;;;;;28.57;16.97;;;;;;;;;;5009079;28;20452;-83
2022/06/09 05:24:12;;;;;;;30.63;15.83;;;;;;;;;;5006223;28;20437;-84
2022/06/09 05:26:38;;;;;;;22.13;14.33;;;;;;;;;;5011032;28;20491;-82
2022/06/09 05:29:04;;;;;;;22.13;14.00;;;;;;;;;;5014139;28;20494;-84
2022/06/09 05:31:32;;;;;;;18.67;14.40;;;;;;;;;;5013831;28;20945;-83
2022/06/09 05:33:58;;;;;;;23.53;16.13;;;;;;;;;;5014771;28;20437;-83
2022/06/09 05:36:25;;;;;;;27.30;16.90;;;;;;;;;;5012120;28;20432;-83
2022/06/09 05:47:04;;;;;;;22.97;13.80;;;;;;;;;;5010356;28;20475;-83
2022/06/09 05:49:31;;;;;;;28.47;14.80;;;;;;;;;;5011413;28;20469;-84
2022/06/09 05:51:57;;;;;;;22.00;13.40;;;;;;;;;;5002309;28;20565;-85
2022/06/09 05:54:24;;;;;;;22.70;13.87;;;;;;;;;;5015072;28;20435;-82
2022/06/09 05:56:50;;;;;;;23.80;12.53;;;;;;;;;;5009324;28;20474;-84
2022/06/09 05:59:16;;;;;;;18.03;12.43;;;;;;;;;;5007091;28;20449;-83
2022/06/09 06:01:43;;;;;;;21.80;12.50;;;;;;;;;;5008528;28;20477;-83
2022/06/09 06:04:10;;;;;;;15.67;13.80;;;;;;;;;;5007428;28;20416;-83
2022/06/09 06:06:37;;;;;;;20.37;12.37;;;;;;;;;;5010467;28;20974;-83
2022/06/09 06:09:05;;;;;;;23.87;13.93;;;;;;;;;;5007963;28;20491;-86
2022/06/09 06:11:31;;;;;;;19.80;14.10;;;;;;;;;;5011572;28;20440;-84
2022/06/09 06:13:57;;;;;;;24.17;14.73;;;;;;;;;;5006714;28;20520;-83
2022/06/09 06:16:24;;;;;;;15.23;12.87;;;;;;;;;;5007215;28;20510;-83
2022/06/09 06:18:50;;;;;;;22.97;12.77;;;;;;;;;;5007550;28;20542;-83
2022/06/09 06:21:18;;;;;;;18.70;12.80;;;;;;;;;;5007382;28;20476;-84
2022/06/09 06:23:45;;;;;;;21.80;13.83;;;;;;;;;;5005439;28;20470;-86
2022/06/09 06:26:12;;;;;;;22.47;14.00;;;;;;;;;;5008204;28;20431;-83
2022/06/09 06:28:38;;;;;;;26.27;15.93;;;;;;;;;;5007401;28;20530;-82
2022/06/09 06:31:04;;;;;;;18.97;13.80;;;;;;;;;;5006190;28;20487;-82
2022/06/09 06:33:31;;;;;;;23.30;15.13;;;;;;;;;;5003959;28;20503;-83
2022/06/09 06:35:57;;;;;;;22.43;14.00;;;;;;;;;;5007347;28;20785;-81
2022/06/09 06:38:25;;;;;;;25.63;13.80;;;;;;;;;;5007092;28;20474;-83
2022/06/09 06:40:51;;;;;;;25.77;15.73;;;;;;;;;;5002485;28;20455;-82
2022/06/09 06:43:18;;;;;;;21.30;14.93;;;;;;;;;;5005312;28;21488;-83
2022/06/09 06:45:44;;;;;;;21.00;14.47;;;;;;;;;;5006493;28;20437;-83
2022/06/09 06:48:11;;;;;;;24.10;15.10;;;;;;;;;;5005975;28;20924;-83
2022/06/09 06:50:37;;;;;;;23.73;15.90;;;;;;;;;;5004290;28;20517;-82
2022/06/09 06:53:03;;;;;;;36.20;17.67;;;;;;;;;;5003357;28;20456;-82
2022/06/09 06:55:31;;;;;;;27.63;16.53;;;;;;;;;;5005097;28;20480;-83
2022/06/09 06:57:57;;;;;;;23.23;15.40;;;;;;;;;;5007513;28;20462;-83
2022/06/09 07:00:24;;;;;;;22.20;14.87;;;;;;;;;;5002751;28;20441;-82
2022/06/09 07:02:51;;;;;;;25.80;16.87;;;;;;;;;;4999796;28;20478;-83
2022/06/09 07:05:21;;;;;;;26.60;16.60;;;;;;;;;;5003042;28;20454;-82
2022/06/09 07:07:47;;;;;;;23.97;15.20;;;;;;;;;;5004996;28;20452;-82
2022/06/09 07:10:14;;;;;;;27.90;17.17;;;;;;;;;;5002955;28;20429;-85
2022/06/09 07:12:42;;;;;;;26.33;15.73;;;;;;;;;;5007392;28;21108;-82
2022/06/09 07:15:09;;;;;;;32.37;15.20;;;;;;;;;;5008575;28;20465;-83
2022/06/09 07:17:35;;;;;;;20.80;15.60;;;;;;;;;;5011590;28;20502;-83
2022/06/09 07:20:02;;;;;;;21.97;15.70;;;;;;;;;;5012096;28;20488;-83
2022/06/09 07:22:28;;;;;;;25.27;15.00;;;;;;;;;;5008438;28;20492;-83
2022/06/09 07:24:55;;;;;;;24.90;16.63;;;;;;;;;;5005748;28;20836;-84
2022/06/09 07:27:22;;;;;;;17.90;15.80;;;;;;;;;;5013208;28;20544;-83
2022/06/09 07:29:49;;;;;;;25.33;14.83;;;;;;;;;;5003850;28;20467;-83
2022/06/09 07:32:16;;;;;;;26.00;15.27;;;;;;;;;;5009235;28;20474;-84
2022/06/09 07:34:44;;;;;;;28.53;16.80;;;;;;;;;;5009496;28;20451;-83
2022/06/09 07:37:11;;;;;;;21.00;16.53;;;;;;;;;;5006330;28;21026;-83
2022/06/09 07:39:37;;;;;;;22.37;16.43;;;;;;;;;;5007490;28;20873;-83
2022/06/09 07:42:04;;;;;;;26.70;16.60;;;;;;;;;;5003780;28;20921;-84
2022/06/09 07:44:30;;;;;;;22.87;15.90;;;;;;;;;;5007918;28;20454;-85
2022/06/09 07:46:58;;;;;;;21.50;15.47;;;;;;;;;;5009018;28;20884;-86
2022/06/09 07:49:25;;;;;;;21.67;16.07;;;;;;;;;;5011348;28;20524;-84
2022/06/09 07:51:51;;;;;;;23.63;16.20;;;;;;;;;;5008390;28;20474;-84
2022/06/09 07:54:18;;;;;;;23.30;14.90;;;;;;;;;;5007512;28;20442;-86
2022/06/09 07:56:44;;;;;;;27.17;15.90;;;;;;;;;;5009611;28;20469;-85
2022/06/09 07:59:11;;;;;;;18.80;14.50;;;;;;;;;;5009604;28;20541;-84
2022/06/09 08:01:37;;;;;;;20.70;15.50;;;;;;;;;;5007363;28;20872;-83
2022/06/09 08:04:05;;;;;;;19.50;14.80;;;;;;;;;;5008241;28;20467;-84
2022/06/09 08:06:31;;;;;;;21.13;14.70;;;;;;;;;;5007786;28;20481;-84
2022/06/09 08:08:59;;;;;;;19.43;14.03;;;;;;;;;;5009894;28;20995;-83
2022/06/09 08:11:26;;;;;;;25.30;16.60;;;;;;;;;;5010725;28;20485;-83
2022/06/09 08:13:52;;;;;;;24.23;16.40;;;;;;;;;;5011041;28;20462;-84
2022/06/09 08:16:19;;;;;;;20.17;15.67;;;;;;;;;;5008679;28;20533;-83
2022/06/09 08:18:45;;;;;;;18.13;15.30;;;;;;;;;;5010577;28;20448;-82
2022/06/09 08:21:13;;;;;;;24.77;16.93;;;;;;;;;;5014926;28;20478;-84
2022/06/09 08:23:39;;;;;;;20.80;15.33;;;;;;;;;;5001769;28;20438;-82
2022/06/09 08:26:05;;;;;;;23.10;17.53;;;;;;;;;;5002699;28;20792;-83
2022/06/09 08:28:32;;;;;;;29.00;17.20;;;;;;;;;;5009202;28;20497;-83
2022/06/09 08:30:58;;;;;;;23.20;16.53;;;;;;;;;;5003064;28;20524;-82
2022/06/09 08:33:25;;;;;;;21.07;15.07;;;;;;;;;;5003960;28;20919;-83
2022/06/09 08:35:52;;;;;;;24.77;17.67;;;;;;;;;;5006640;28;20470;-83
2022/06/09 08:38:20;;;;;;;23.17;16.60;;;;;;;;;;5006178;28;20490;-83
2022/06/09 08:40:50;;;;;;;18.80;15.90;;;;;;;;;;5003555;28;20453;-83
2022/06/09 08:43:21;;;;;;;19.87;16.20;;;;;;;;;;5004912;28;20537;-86
2022/06/09 08:45:48;;;;;;;23.20;16.53;;;;;;;;;;5008657;28;20869;-82
2022/06/09 08:48:17;;;;;;;27.37;17.57;;;;;;;;;;5001072;28;20475;-83
2022/06/09 08:50:48;;;;;;;25.80;17.03;;;;;;;;;;5003298;28;20465;-86
2022/06/09 08:53:18;;;;;;;27.53;17.60;;;;;;;;;;4999357;28;20470;-84
2022/06/09 08:55:47;;;;;;;17.47;15.43;;;;;;;;;;5006334;28;20429;-82
2022/06/09 08:58:16;;;;;;;24.67;17.50;;;;;;;;;;5004617;28;20477;-80
2022/06/09 09:00:44;;;;;;;32.93;18.10;;;;;;;;;;5004577;28;20524;-82
2022/06/09 09:03:13;;;;;;;32.00;18.27;;;;;;;;;;5007601;28;20494;-82
2022/06/09 09:05:42;;;;;;;25.93;17.70;;;;;;;;;;5010195;28;20511;-83
2022/06/09 09:08:10;;;;;;;25.50;16.83;;;;;;;;;;5003652;28;20475;-81
2022/06/09 09:10:41;;;;;;;26.33;18.67;;;;;;;;;;5006310;28;20833;-83
2022/06/09 09:13:21;;;;;;;25.30;16.73;;;;;;;;;;5004647;28;20485;-81
2022/06/09 09:15:50;;;;;;;26.57;17.37;;;;;;;;;;5008647;28;20459;-82
2022/06/09 09:18:23;;;;;;;23.43;16.70;;;;;;;;;;5006197;28;20525;-85
2022/06/09 09:20:54;;;;;;;24.40;16.60;;;;;;;;;;5005035;28;20590;-85
2022/06/09 09:23:21;;;;;;;21.17;16.93;;;;;;;;;;5005655;28;20473;-83
2022/06/09 09:25:54;;;;;;;17.60;15.00;;;;;;;;;;5012049;28;20466;-85
2022/06/09 09:28:27;;;;;;;20.63;15.30;;;;;;;;;;5009733;28;20511;-84
2022/06/09 09:30:58;;;;;;;23.27;15.70;;;;;;;;;;5007570;28;20991;-85
2022/06/09 09:33:24;;;;;;;21.83;14.90;;;;;;;;;;5006170;28;20469;-84
2022/06/09 09:35:53;;;;;;;20.57;14.83;;;;;;;;;;5009847;28;20457;-84
2022/06/09 09:38:21;;;;;;;18.17;15.30;;;;;;;;;;5010101;28;20504;-83
2022/06/09 09:40:48;;;;;;;21.17;16.50;;;;;;;;;;5009626;28;20458;-82
2022/06/09 09:43:16;;;;;;;22.10;17.03;;;;;;;;;;5006048;28;20466;-85
2022/06/09 09:45:45;;;;;;;20.47;15.90;;;;;;;;;;5007373;28;20517;-85
2022/06/09 09:48:26;;;;;;;26.70;16.70;;;;;;;;;;5004219;28;20470;-83
2022/06/09 09:50:55;;;;;;;17.23;14.27;;;;;;;;;;5007701;28;20485;-87
2022/06/09 09:53:24;;;;;;;21.70;15.80;;;;;;;;;;5031082;22;20573;-86
2022/06/09 09:55:52;;;;;;;20.10;13.47;;;;;;;;;;5004351;28;20975;-86
2022/06/09 09:58:21;;;;;;;20.53;14.00;;;;;;;;;;5004848;28;20498;-86
2022/06/09 10:00:50;;;;;;;16.87;12.90;;;;;;;;;;5004165;28;20540;-85
2022/06/09 10:08:48;;;;;;;14.10;12.33;;;;;;;;;;4979272;28;20522;-85
2022/06/09 10:14:00;;;;;;;16.27;12.03;;;;;;;;;;4970105;28;20848;-87
2022/06/09 10:16:29;;;;;;;12.70;11.40;;;;;;;;;;4982211;28;20467;-86
2022/06/09 10:19:00;;;;;;;13.63;11.80;;;;;;;;;;4982082;28;20899;-86
2022/06/09 10:21:27;;;;;;;14.87;12.10;;;;;;;;;;4984960;28;20441;-86
2022/06/09 10:23:55;;;;;;;12.43;11.10;;;;;;;;;;4987871;28;20525;-86
2022/06/09 10:26:23;;;;;;;13.27;10.80;;;;;;;;;;4990863;28;20486;-86
2022/06/09 10:28:54;;;;;;;15.10;11.53;;;;;;;;;;4990139;28;20486;-86
2022/06/09 10:31:31;;;;;;;17.73;12.30;;;;;;;;;;4994204;28;20513;-86
2022/06/09 10:34:01;;;;;;;15.03;13.07;;;;;;;;;;4984883;28;20475;-85
2022/06/09 10:36:29;;;;;;;12.20;11.00;;;;;;;;;;4994365;28;20501;-86
2022/06/09 10:38:57;;;;;;;12.60;11.17;;;;;;;;;;4989217;28;20498;-85
2022/06/09 10:41:32;;;;;;;10.13;8.83;;;;;;;;;;4993333;28;20945;-87
2022/06/09 10:44:04;;;;;;;9.70;8.40;;;;;;;;;;4992331;28;20482;-86
2022/06/09 10:46:35;;;;;;;12.60;10.07;;;;;;;;;;4992018;28;20460;-86
2022/06/09 10:57:32;;;;;;;9.17;6.67;;;;;;;;;;4991563;28;20843;-86
2022/06/09 11:00:01;;;;;;;7.10;5.70;;;;;;;;;;4994945;28;20537;-87
2022/06/09 11:02:28;;;;;;;9.50;5.97;;;;;;;;;;4992607;28;20510;-84
2022/06/09 11:04:56;;;;;;;9.13;6.30;;;;;;;;;;4990772;28;20475;-86
2022/06/09 11:07:40;;;;;;;5.90;5.23;;;;;;;;;;4986555;28;20452;-87
2022/06/09 11:10:11;;;;;;;8.13;5.53;;;;;;;;;;4991735;28;20520;-88
2022/06/09 11:12:41;;;;;;;5.40;4.90;;;;;;;;;;4990368;28;20495;-86
2022/06/09 11:15:18;;;;;;;5.80;4.93;;;;;;;;;;4989839;28;20911;-85
2022/06/09 11:17:52;;;;;;;6.50;5.90;;;;;;;;;;4985321;28;20497;-85
2022/06/09 11:20:26;;;;;;;5.80;5.17;;;;;;;;;;4983557;28;20502;-85
2022/06/09 11:22:57;;;;;;;6.47;5.77;;;;;;;;;;4985353;28;20569;-87
2022/06/09 11:25:31;;;;;;;9.33;6.23;;;;;;;;;;4983349;28;20481;-86
2022/06/09 11:28:04;;;;;;;8.17;5.70;;;;;;;;;;4982728;28;20525;-85
2022/06/09 11:30:35;;;;;;;4.30;3.90;;;;;;;;;;4980875;28;20918;-85
2022/06/09 11:33:09;;;;;;;4.23;3.80;;;;;;;;;;4986207;28;20491;-87
2022/06/09 11:35:43;;;;;;;6.27;4.90;;;;;;;;;;4984639;28;20545;-85
2022/06/09 11:38:23;;;;;;;6.17;4.60;;;;;;;;;;4986819;28;20446;-86
2022/06/09 11:40:57;;;;;;;6.40;3.87;;;;;;;;;;4991834;28;20474;-88
2022/06/09 11:43:35;;;;;;;8.03;4.97;;;;;;;;;;4992089;28;20467;-86
2022/06/09 11:46:03;;;;;;;8.83;4.70;;;;;;;;;;4994608;28;20474;-86
2022/06/09 11:48:31;;;;;;;4.80;4.40;;;;;;;;;;4993061;28;20528;-86
2022/06/09 11:50:59;;;;;;;4.07;3.63;;;;;;;;;;4988938;28;20489;-89
2022/06/09 11:53:28;;;;;;;6.83;4.03;;;;;;;;;;4992514;28;20510;-86
2022/06/09 11:56:33;;;;;;;3.17;2.87;;;;;;;;;;4993557;28;20495;-86
2022/06/09 11:58:59;;;;;;;3.93;3.43;;;;;;;;;;4988880;28;20467;-87
2022/06/09 12:01:32;;;;;;;4.37;3.70;;;;;;;;;;4989442;28;20471;-87
2022/06/09 12:04:16;;;;;;;5.40;2.90;;;;;;;;;;4992101;28;20612;-87
2022/06/09 12:06:55;;;;;;;4.47;3.30;;;;;;;;;;4952456;28;20458;-85
2022/06/09 12:09:25;;;;;;;5.03;3.23;;;;;;;;;;4992768;28;20474;-92
2022/06/09 12:11:56;;;;;;;4.87;2.70;;;;;;;;;;4989665;28;20470;-88
2022/06/09 12:14:26;;;;;;;4.40;2.80;;;;;;;;;;4988147;28;21086;-87
2022/06/09 12:17:05;;;;;;;3.37;2.23;;;;;;;;;;4983380;28;20467;-88
2022/06/09 12:19:35;;;;;;;4.50;3.30;;;;;;;;;;4986821;28;21128;-87
2022/06/09 12:22:16;;;;;;;3.57;3.17;;;;;;;;;;4989359;28;20474;-87
2022/06/09 12:24:58;;;;;;;6.20;2.50;;;;;;;;;;4987830;28;20863;-87
2022/06/09 12:27:42;;;;;;;4.37;2.60;;;;;;;;;;4988137;28;20510;-87
2022/06/09 12:30:26;;;;;;;3.63;2.33;;;;;;;;;;4983419;28;20532;-87
2022/06/09 12:32:56;;;;;;;6.53;2.40;;;;;;;;;;4987884;28;20477;-84
2022/06/09 12:35:26;;;;;;;3.30;2.40;;;;;;;;;;4988190;28;20472;-84
2022/06/09 12:37:57;;;;;;;6.90;2.63;;;;;;;;;;4990034;28;20440;-85
2022/06/09 12:40:25;;;;;;;2.33;1.20;;;;;;;;;;4989456;28;20546;-84
2022/06/09 12:42:55;;;;;;;3.97;1.80;;;;;;;;;;4987244;28;20483;-86
2022/06/09 12:45:24;;;;;;;2.40;1.70;;;;;;;;;;4987410;28;21257;-85
2022/06/09 12:47:55;;;;;;;1.60;1.47;;;;;;;;;;4988416;28;20463;-87
2022/06/09 12:50:24;;;;;;;2.63;2.40;;;;;;;;;;4988815;28;20881;-86
2022/06/09 12:52:52;;;;;;;3.23;1.50;;;;;;;;;;4988320;28;20493;-85
2022/06/09 12:55:20;;;;;;;1.77;1.30;;;;;;;;;;4988492;28;20560;-86
2022/06/09 12:57:47;;;;;;;2.20;1.50;;;;;;;;;;4987428;28;20526;-83
2022/06/09 13:00:17;;;;;;;3.00;1.90;;;;;;;;;;4989332;28;21091;-86
2022/06/09 13:02:44;;;;;;;2.43;1.00;;;;;;;;;;4991759;28;20924;-84
2022/06/09 13:05:17;;;;;;;1.90;0.90;;;;;;;;;;4993816;28;20489;-85
2022/06/09 13:07:48;;;;;;;2.77;1.50;;;;;;;;;;4994299;28;20463;-83
2022/06/09 13:10:18;;;;;;;2.83;1.47;;;;;;;;;;4994832;28;20482;-83
2022/06/09 13:12:53;;;;;;;1.97;1.40;;;;;;;;;;4993485;28;20494;-85
2022/06/09 13:15:33;;;;;;;3.00;1.47;;;;;;;;;;4993097;28;20536;-84
2022/06/09 13:17:59;;;;;;;4.00;1.33;;;;;;;;;;4995226;28;20546;-85
2022/06/09 13:20:26;;;;;;;2.33;1.77;;;;;;;;;;4993632;28;20475;-84
2022/06/09 13:22:53;;;;;;;1.30;1.20;;;;;;;;;;4992256;28;20491;-84
2022/06/09 13:25:21;;;;;;;3.60;1.40;;;;;;;;;;4994746;28;20467;-84
2022/06/09 13:27:48;;;;;;;3.93;1.00;;;;;;;;;;4993974;28;20569;-83
2022/06/09 13:30:38;;;;;;;2.27;1.17;;;;;;;;;;4991948;28;20483;-85
2022/06/09 13:33:19;;;;;;;2.70;1.30;;;;;;;;;;4989320;28;20485;-84
2022/06/09 13:35:45;;;;;;;4.33;1.70;;;;;;;;;;4993011;28;20486;-84
2022/06/09 13:38:17;;;;;;;1.87;0.90;;;;;;;;;;4990943;28;20494;-84
2022/06/09 13:40:45;;;;;;;3.57;1.07;;;;;;;;;;4992776;28;20509;-83
2022/06/09 13:43:16;;;;;;;2.60;1.30;;;;;;;;;;4991524;28;20513;-83
2022/06/09 13:45:49;;;;;;;4.00;1.00;;;;;;;;;;4995418;28;20483;-83
2022/06/09 13:48:17;;;;;;;2.30;1.20;;;;;;;;;;4993654;28;20498;-84
2022/06/09 13:50:45;;;;;;;0.80;0.77;;;;;;;;;;4985493;28;21070;-84
2022/06/09 13:53:21;;;;;;;4.20;1.17;;;;;;;;;;4992332;28;20585;-85
2022/06/09 13:55:48;;;;;;;3.70;1.60;;;;;;;;;;4991092;28;20481;-84
2022/06/09 13:58:14;;;;;;;3.13;1.40;;;;;;;;;;4992633;28;20470;-84
2022/06/09 14:00:43;;;;;;;2.60;1.13;;;;;;;;;;4992621;28;20467;-84
2022/06/09 14:03:14;;;;;;;1.33;1.17;;;;;;;;;;4995941;28;20470;-83
2022/06/09 14:05:42;;;;;;;2.67;1.43;;;;;;;;;;4990613;28;20487;-85
2022/06/09 14:08:08;;;;;;;2.23;1.20;;;;;;;;;;4995269;28;20529;-84
2022/06/09 14:10:34;;;;;;;5.40;1.50;;;;;;;;;;4993169;28;20525;-85
2022/06/09 14:13:01;;;;;;;2.33;1.27;;;;;;;;;;4992842;28;20510;-86
2022/06/09 14:15:28;;;;;;;4.27;1.20;;;;;;;;;;4994363;28;20489;-83
2022/06/09 14:17:55;;;;;;;4.20;1.27;;;;;;;;;;4994326;28;20470;-84
2022/06/09 14:20:24;;;;;;;2.60;1.27;;;;;;;;;;4992956;28;20537;-84
2022/06/09 14:22:51;;;;;;;5.40;1.87;;;;;;;;;;4994986;28;20487;-84
2022/06/09 14:25:17;;;;;;;4.30;1.57;;;;;;;;;;4996507;28;20466;-83
2022/06/09 14:27:44;;;;;;;2.57;1.60;;;;;;;;;;4993469;28;20980;-83
2022/06/09 14:30:12;;;;;;;2.17;1.27;;;;;;;;;;4990634;28;20512;-84
2022/06/09 14:32:38;;;;;;;5.93;1.60;;;;;;;;;;4993208;28;20467;-83
2022/06/09 14:35:05;;;;;;;3.97;2.00;;;;;;;;;;4994677;28;20541;-84
2022/06/09 14:37:33;;;;;;;7.00;2.47;;;;;;;;;;4994719;28;20547;-84
2022/06/09 14:39:59;;;;;;;4.53;1.33;;;;;;;;;;4991028;28;20471;-84
2022/06/09 14:42:26;;;;;;;6.00;1.90;;;;;;;;;;4992750;28;20479;-84
2022/06/09 14:44:52;;;;;;;6.17;2.13;;;;;;;;;;4992288;28;20533;-84
2022/06/09 14:47:20;;;;;;;8.00;2.63;;;;;;;;;;4993707;28;20469;-86
2022/06/09 14:49:47;;;;;;;3.73;2.10;;;;;;;;;;4990545;28;20482;-85
2022/06/09 14:52:15;;;;;;;2.20;1.33;;;;;;;;;;4992962;28;20871;-83
2022/06/09 14:54:43;;;;;;;2.17;1.40;;;;;;;;;;4991431;28;20479;-84
2022/06/09 14:57:10;;;;;;;4.43;1.80;;;;;;;;;;4992737;28;20452;-85